Time;durP1;ratioP1;P1;durP2;ratioP2;P2;SDS_P1;SDS_P2;PMS_P1;PMS_P2;Temp;Humidity;BMP_temperature;BMP_pressure;BME280_temperature;BME280_humidity;BME280_pressure;Samples;Min_cycle;Max_cycle;Signal;HPM_P1;HPM_P2
2021/11/24 00:00:13;;;;;;;3.30;2.05;;;;;;;26.27;29.75;97374.28;5021744;28;20041;-32
2021/11/24 00:02:39;;;;;;;5.13;2.35;;;;;;;26.26;30.15;97369.09;5020704;28;20033;-29
2021/11/24 00:05:04;;;;;;;4.30;2.33;;;;;;;26.26;30.02;97377.81;5025143;28;20038;-31
2021/11/24 00:07:30;;;;;;;3.75;2.40;;;;;;;26.25;30.03;97365.59;5022757;28;20898;-31
2021/11/24 00:09:55;;;;;;;3.53;2.00;;;;;;;26.25;30.05;97370.84;5025594;28;20037;-35
2021/11/24 00:12:21;;;;;;;3.92;2.17;;;;;;;26.24;30.05;97371.78;5027780;28;20025;-32
2021/11/24 00:14:46;;;;;;;2.83;2.20;;;;;;;26.24;29.98;97369.16;5026077;28;20055;-31
2021/11/24 00:17:12;;;;;;;4.45;2.22;;;;;;;26.24;30.12;97379.66;5042158;28;20856;-31
2021/11/24 00:19:37;;;;;;;3.97;2.25;;;;;;;26.23;30.11;97370.03;5026201;28;20551;-32
2021/11/24 00:22:02;;;;;;;3.42;2.15;;;;;;;26.24;30.11;97363.91;5024528;28;20090;-34
2021/11/24 00:24:28;;;;;;;4.07;2.22;;;;;;;26.23;29.77;97372.66;5029047;28;20416;-34
2021/11/24 00:26:53;;;;;;;3.40;2.22;;;;;;;26.23;29.96;97363.03;5022169;28;20571;-33
2021/11/24 00:29:18;;;;;;;3.60;2.30;;;;;;;26.22;29.71;97370.97;5024046;28;20029;-32
2021/11/24 00:31:44;;;;;;;3.47;2.08;;;;;;;26.22;29.99;97370.97;5028821;28;20028;-32
2021/11/24 00:34:10;;;;;;;3.72;2.28;;;;;;;26.21;30.33;97367.47;5022623;28;20021;-33
2021/11/24 00:36:35;;;;;;;3.70;2.45;;;;;;;26.21;29.71;97372.72;5026433;28;20513;-34
2021/11/24 00:39:00;;;;;;;3.53;2.28;;;;;;;26.20;29.62;97378.91;5027388;28;20040;-30
2021/11/24 00:41:26;;;;;;;3.35;2.20;;;;;;;26.16;29.91;97366.00;5028221;28;20037;-33
2021/11/24 00:43:51;;;;;;;4.22;2.15;;;;;;;26.19;30.26;97371.09;5029542;28;20056;-31
2021/11/24 00:46:16;;;;;;;3.35;2.30;;;;;;;26.18;30.14;97374.66;5027639;28;20512;-31
2021/11/24 00:48:42;;;;;;;3.20;2.15;;;;;;;26.19;29.83;97363.22;5027909;28;20032;-32
2021/11/24 00:51:08;;;;;;;2.03;1.80;;;;;;;26.19;30.19;97360.59;5029225;28;20018;-31
2021/11/24 00:53:33;;;;;;;5.45;2.33;;;;;;;26.17;29.71;97357.19;5043019;28;20594;-31
2021/11/24 00:55:58;;;;;;;6.50;2.33;;;;;;;26.18;30.05;97356.28;5029250;28;20064;-32
2021/11/24 00:58:24;;;;;;;2.80;2.08;;;;;;;26.17;29.77;97357.19;5022893;28;20033;-32
2021/11/24 01:00:49;;;;;;;3.55;2.53;;;;;;;26.17;29.84;97359.81;5020452;28;20684;-35
2021/11/24 01:03:15;;;;;;;3.60;2.50;;;;;;;26.16;29.82;97356.34;5028376;28;20045;-29
2021/11/24 01:05:45;;;;;;;2.85;2.28;;;;;;;26.17;29.54;97363.31;5021736;28;20549;-31
2021/11/24 01:08:14;;;;;;;2.92;2.20;;;;;;;26.16;29.67;97356.34;5028521;28;20397;-30
2021/11/24 01:10:39;;;;;;;7.68;2.17;;;;;;;26.15;29.76;97353.78;5023405;28;20098;-30
2021/11/24 01:13:05;;;;;;;4.25;2.42;;;;;;;26.15;29.56;97352.00;5027346;28;20025;-30
2021/11/24 01:15:30;;;;;;;3.97;2.03;;;;;;;26.16;29.51;97350.25;5028294;28;20037;-31
2021/11/24 01:17:56;;;;;;;4.00;2.10;;;;;;;26.15;29.98;97353.78;5025382;28;20043;-31
2021/11/24 01:20:21;;;;;;;4.18;2.50;;;;;;;26.14;29.98;97357.34;5030099;28;20029;-29
2021/11/24 01:22:46;;;;;;;3.63;2.35;;;;;;;26.13;29.78;97353.00;5028809;28;20033;-30
2021/11/24 01:25:12;;;;;;;3.13;2.08;;;;;;;26.13;29.55;97355.63;5024979;28;20092;-35
2021/11/24 01:27:37;;;;;;;4.28;2.00;;;;;;;26.12;29.69;97359.19;5026586;28;20429;-31
2021/11/24 01:30:03;;;;;;;3.33;2.10;;;;;;;26.12;29.76;97348.69;5025981;28;20412;-32
2021/11/24 01:32:29;;;;;;;3.03;2.22;;;;;;;26.12;29.53;97352.16;5026087;28;20039;-32
2021/11/24 01:34:54;;;;;;;3.08;2.40;;;;;;;26.13;30.06;97353.00;5027726;28;20025;-34
2021/11/24 01:37:20;;;;;;;4.00;2.25;;;;;;;26.12;29.94;97349.53;5025141;28;20033;-33
2021/11/24 01:39:45;;;;;;;3.13;1.98;;;;;;;26.11;29.90;97353.06;5029074;28;20056;-34
2021/11/24 01:42:11;;;;;;;2.88;1.98;;;;;;;26.10;29.89;97349.59;5024298;28;20879;-32
2021/11/24 01:44:36;;;;;;;4.22;2.30;;;;;;;26.09;29.61;97345.25;5024175;28;20039;-33
2021/11/24 01:47:03;;;;;;;2.90;2.08;;;;;;;26.08;29.57;97348.81;5034797;28;21381;-33
2021/11/24 01:49:28;;;;;;;3.00;2.10;;;;;;;26.09;29.64;97350.50;5018045;28;20039;-32
2021/11/24 01:51:56;;;;;;;2.47;2.03;;;;;;;26.07;29.89;97347.13;5029973;28;20025;-33
2021/11/24 01:54:22;;;;;;;3.30;2.25;;;;;;;26.08;29.86;97346.19;5038232;28;20024;-32
2021/11/24 01:56:47;;;;;;;3.25;1.95;;;;;;;26.08;29.89;97338.31;5024842;28;20587;-32
2021/11/24 01:59:12;;;;;;;3.30;2.30;;;;;;;26.07;29.55;97347.13;5021430;28;20040;-32
2021/11/24 02:01:39;;;;;;;2.33;1.95;;;;;;;26.07;29.67;97339.25;5017465;28;20070;-32
2021/11/24 02:04:04;;;;;;;3.78;1.90;;;;;;;26.07;29.58;97333.13;5015404;28;20030;-29
2021/11/24 02:06:30;;;;;;;2.45;1.90;;;;;;;26.07;29.79;97330.50;5026827;28;20075;-34
2021/11/24 02:08:55;;;;;;;2.42;1.90;;;;;;;26.05;29.69;97322.69;5023476;28;20044;-30
2021/11/24 02:11:21;;;;;;;2.17;1.88;;;;;;;26.05;29.33;97320.06;5022860;28;20473;-35
2021/11/24 02:13:46;;;;;;;2.55;2.17;;;;;;;26.05;29.50;97327.09;5040925;28;20032;-31
2021/11/24 02:16:12;;;;;;;2.30;1.80;;;;;;;26.04;29.51;97326.25;5021368;28;20029;-33
2021/11/24 02:18:37;;;;;;;2.25;1.88;;;;;;;26.04;29.67;97320.13;5021318;28;20052;-33
2021/11/24 02:21:02;;;;;;;3.90;2.05;;;;;;;26.02;29.64;97314.97;5021278;28;20040;-33
2021/11/24 02:23:28;;;;;;;2.67;1.90;;;;;;;26.02;29.38;97314.97;5026247;28;20061;-30
2021/11/24 02:25:53;;;;;;;2.28;1.88;;;;;;;26.04;29.14;97312.25;5027277;28;20037;-33
2021/11/24 02:28:19;;;;;;;2.80;1.90;;;;;;;26.02;29.49;97314.97;5027908;28;20083;-35
2021/11/24 02:30:44;;;;;;;3.97;2.03;;;;;;;26.04;29.57;97310.47;5026628;28;20405;-33
2021/11/24 02:33:09;;;;;;;3.90;1.80;;;;;;;26.03;29.38;97297.41;5028654;28;20593;-32
2021/11/24 02:35:35;;;;;;;2.35;1.85;;;;;;;26.02;29.14;97296.59;5029956;28;20020;-29
2021/11/24 02:38:03;;;;;;;3.65;2.10;;;;;;;26.03;29.56;97297.41;5028894;28;20112;-33
2021/11/24 02:40:32;;;;;;;2.25;1.80;;;;;;;26.01;29.31;97292.22;5033327;28;20437;-32
2021/11/24 02:42:58;;;;;;;2.58;1.77;;;;;;;26.00;29.46;97287.91;5031040;28;20037;-32
2021/11/24 02:45:23;;;;;;;2.47;1.95;;;;;;;26.01;29.68;97291.41;5042916;28;20044;-31
2021/11/24 02:47:49;;;;;;;1.90;1.65;;;;;;;26.00;29.23;97285.28;5027476;28;20026;-32
2021/11/24 02:50:14;;;;;;;2.55;1.98;;;;;;;25.99;29.50;97288.84;5028454;28;20037;-36
2021/11/24 02:52:39;;;;;;;2.55;1.98;;;;;;;26.00;29.42;97281.81;5031225;28;20033;-32
2021/11/24 02:55:05;;;;;;;2.75;2.08;;;;;;;25.98;29.64;97287.13;5024868;28;21325;-34
2021/11/24 02:57:42;;;;;;;3.40;2.00;;;;;;;25.98;29.49;97279.25;5024340;28;20094;-31
2021/11/24 03:00:12;;;;;;;2.40;1.80;;;;;;;25.98;29.28;97279.25;5026547;28;20033;-32
2021/11/24 03:02:37;;;;;;;2.47;1.90;;;;;;;25.99;29.60;97270.47;5024130;28;20075;-33
2021/11/24 03:05:03;;;;;;;3.22;1.80;;;;;;;25.96;29.50;97267.97;5028818;28;20026;-32
2021/11/24 03:07:28;;;;;;;2.70;1.58;;;;;;;25.97;29.18;97269.66;5045919;28;20051;-35
2021/11/24 03:09:54;;;;;;;2.63;1.77;;;;;;;25.96;29.76;97265.34;5027317;28;20024;-33
2021/11/24 03:12:20;;;;;;;2.60;1.90;;;;;;;25.95;29.46;97268.88;5030158;28;20098;-30
2021/11/24 03:14:46;;;;;;;2.70;1.80;;;;;;;25.94;29.45;97264.56;5026126;28;20669;-34
2021/11/24 03:17:11;;;;;;;2.70;1.90;;;;;;;25.94;29.17;97273.28;5027351;28;20037;-30
2021/11/24 03:19:36;;;;;;;2.30;1.65;;;;;;;25.94;29.42;97267.19;5044605;28;20033;-31
2021/11/24 03:22:02;;;;;;;4.82;1.73;;;;;;;25.94;29.64;97268.03;5027474;28;20029;-31
2021/11/24 03:24:27;;;;;;;4.20;1.60;;;;;;;25.94;29.13;97264.56;5027731;28;20056;-30
2021/11/24 03:26:53;;;;;;;1.67;1.40;;;;;;;25.94;29.33;97264.56;5026464;28;20029;-32
2021/11/24 03:29:18;;;;;;;1.48;1.27;;;;;;;25.93;29.32;97258.44;5028145;28;20025;-35
2021/11/24 03:31:44;;;;;;;1.95;1.60;;;;;;;25.92;29.37;97258.53;5027890;28;20029;-30
2021/11/24 03:34:10;;;;;;;2.70;1.80;;;;;;;25.93;29.48;97252.38;5031800;28;20021;-34
2021/11/24 03:36:36;;;;;;;2.20;1.70;;;;;;;25.92;29.43;97248.00;5031346;28;20029;-31
2021/11/24 03:39:02;;;;;;;2.67;1.77;;;;;;;25.92;29.76;97248.00;5030308;28;20079;-35
2021/11/24 03:41:28;;;;;;;2.63;1.60;;;;;;;25.91;29.11;97243.69;5023353;28;20064;-32
2021/11/24 03:43:53;;;;;;;3.15;1.40;;;;;;;25.92;29.18;97237.50;5030761;28;20170;-32
2021/11/24 03:46:18;;;;;;;2.28;1.63;;;;;;;25.91;29.18;97241.06;5028248;28;20547;-33
2021/11/24 03:48:44;;;;;;;3.63;1.75;;;;;;;25.92;29.08;97245.38;5021231;28;20815;-31
2021/11/24 03:51:09;;;;;;;2.47;1.70;;;;;;;25.90;29.55;97234.13;5020396;28;20044;-30
2021/11/24 03:53:39;;;;;;;2.53;1.75;;;;;;;25.90;29.22;97240.22;5026347;28;20025;-31
2021/11/24 03:56:05;;;;;;;1.70;1.50;;;;;;;25.90;29.38;97236.75;5018475;28;20179;-31
2021/11/24 03:58:30;;;;;;;2.33;1.60;;;;;;;25.89;29.45;97233.25;5021451;28;20036;-34
2021/11/24 04:00:56;;;;;;;1.98;1.40;;;;;;;25.88;29.31;97236.81;5026753;28;20048;-32
2021/11/24 04:03:21;;;;;;;1.77;1.45;;;;;;;25.88;29.49;97238.56;5031998;28;20036;-30
2021/11/24 04:05:47;;;;;;;3.63;1.80;;;;;;;25.88;29.34;97242.06;5024964;28;20029;-34
2021/11/24 04:08:12;;;;;;;1.83;1.35;;;;;;;25.88;100.00;61375.16;5030364;28;20029;-33
2021/11/24 04:10:37;;;;;;;2.50;1.92;;;;;;;-148.56;100.00;61375.16;5024975;28;20481;-33
2021/11/24 04:13:03;;;;;;;2.17;1.52;;;;;;;-148.56;100.00;61375.16;5024594;28;20026;-32
2021/11/24 04:15:28;;;;;;;1.90;1.50;;;;;;;-148.56;100.00;61375.16;5025909;28;20035;-31
2021/11/24 04:17:54;;;;;;;2.17;1.40;;;;;;;-148.56;100.00;61375.16;5029859;28;20407;-31
2021/11/24 04:20:19;;;;;;;2.05;1.80;;;;;;;-148.56;100.00;61375.16;5016224;28;20047;-33
2021/11/24 04:22:45;;;;;;;2.03;1.38;;;;;;;-148.56;100.00;61375.16;5038261;28;20025;-35
2021/11/24 04:25:11;;;;;;;1.73;1.40;;;;;;;-148.56;100.00;61375.16;5041861;28;20033;-33
2021/11/24 04:27:36;;;;;;;2.33;1.58;;;;;;;-148.56;100.00;61375.16;5027964;28;20033;-32
2021/11/24 04:30:02;;;;;;;4.05;2.65;;;;;;;-148.56;100.00;61375.16;5027503;28;20352;-32
2021/11/24 04:32:28;;;;;;;4.18;1.73;;;;;;;-148.56;100.00;61375.16;5027721;28;20056;-37
2021/11/24 04:34:53;;;;;;;4.75;1.70;;;;;;;-148.56;100.00;61375.16;5019204;28;21389;-32
2021/11/24 04:37:19;;;;;;;1.83;1.40;;;;;;;-148.56;100.00;61375.16;5029864;28;20032;-33
2021/11/24 04:39:44;;;;;;;2.00;1.45;;;;;;;-148.56;100.00;61375.16;5027123;28;20036;-34
2021/11/24 04:42:10;;;;;;;3.28;1.70;;;;;;;-148.56;100.00;61375.16;5023995;28;20467;-32
2021/11/24 04:44:35;;;;;;;2.97;1.70;;;;;;;-148.56;100.00;61375.16;5041952;28;20575;-35
2021/11/24 04:47:01;;;;;;;2.45;1.40;;;;;;;-148.56;100.00;61375.16;5026542;28;20041;-29
2021/11/24 04:49:26;;;;;;;6.68;1.63;;;;;;;-148.56;100.00;61375.16;5021935;28;20194;-35
2021/11/24 04:51:52;;;;;;;1.63;1.52;;;;;;;-148.56;100.00;61375.16;5028180;28;20022;-35
2021/11/24 04:54:17;;;;;;;1.73;1.38;;;;;;;-148.56;100.00;61375.16;5026756;28;20029;-31
2021/11/24 04:56:43;;;;;;;1.55;1.42;;;;;;;-148.56;100.00;61375.16;5019944;28;20071;-32
2021/11/24 04:59:08;;;;;;;1.45;1.35;;;;;;;-148.56;100.00;61375.16;5026801;28;20033;-31
2021/11/24 05:01:34;;;;;;;2.92;1.50;;;;;;;-148.56;100.00;61375.16;5024791;28;20094;-29
2021/11/24 05:03:59;;;;;;;2.03;1.77;;;;;;;-148.56;100.00;61375.16;5026720;28;20084;-30
2021/11/24 05:06:24;;;;;;;1.45;1.30;;;;;;;-148.56;100.00;61375.16;5027023;28;20728;-32
2021/11/24 05:08:50;;;;;;;1.75;1.55;;;;;;;-148.56;100.00;61375.16;5025089;28;20025;-35
2021/11/24 05:11:16;;;;;;;2.60;1.75;;;;;;;-148.56;100.00;61375.16;5027812;28;20045;-32
2021/11/24 05:13:47;;;;;;;3.58;1.27;;;;;;;-148.56;100.00;61375.16;5026769;28;20026;-32
2021/11/24 05:16:12;;;;;;;2.28;1.40;;;;;;;-148.56;100.00;61375.16;5026996;28;20513;-31
2021/11/24 05:18:42;;;;;;;1.95;1.52;;;;;;;-148.56;100.00;61375.16;5027778;28;20029;-34
2021/11/24 05:21:17;;;;;;;2.75;1.80;;;;;;;-148.56;100.00;61375.16;5027963;28;20116;-31
2021/11/24 05:23:43;;;;;;;1.70;1.20;;;;;;;-148.56;100.00;61375.16;5028903;28;20429;-32
2021/11/24 05:26:09;;;;;;;1.83;1.35;;;;;;;-148.56;100.00;61375.16;5025733;28;20029;-33
2021/11/24 05:28:34;;;;;;;1.52;1.13;;;;;;;-148.56;100.00;61375.16;5023516;28;20024;-30
2021/11/24 05:31:00;;;;;;;2.20;1.40;;;;;;;-148.56;100.00;61375.16;5026327;28;20090;-31
2021/11/24 05:33:26;;;;;;;2.42;1.42;;;;;;;-148.56;100.00;61375.16;5020925;28;20030;-32
2021/11/24 05:35:51;;;;;;;2.20;1.45;;;;;;;-148.56;100.00;61375.16;5023154;28;20299;-33
2021/11/24 05:38:16;;;;;;;1.70;1.42;;;;;;;-148.56;100.00;61375.16;5022624;28;20037;-30
2021/11/24 05:40:42;;;;;;;2.30;1.10;;;;;;;-148.56;100.00;61375.16;5020999;28;20030;-31
2021/11/24 05:43:07;;;;;;;2.20;1.58;;;;;;;-148.56;100.00;61375.16;5026778;28;20126;-32
2021/11/24 05:48:02;;;;;;;2.22;1.42;;;;;;;-148.56;100.00;61375.16;5025061;28;20033;-31
2021/11/24 05:50:28;;;;;;;5.93;2.70;;;;;;;-148.56;100.00;61375.16;5029736;28;20021;-30
2021/11/24 05:52:54;;;;;;;3.35;1.90;;;;;;;-148.56;100.00;61375.16;5032848;28;20036;-31
2021/11/24 05:55:20;;;;;;;3.33;1.70;;;;;;;-148.56;100.00;61375.16;5024811;28;20017;-31
2021/11/24 05:57:46;;;;;;;1.92;1.42;;;;;;;-148.56;100.00;61375.16;5017255;28;20098;-31
2021/11/24 06:00:12;;;;;;;3.63;1.40;;;;;;;-148.56;100.00;61375.16;5015431;28;22267;-30
2021/11/24 06:02:37;;;;;;;4.93;1.58;;;;;;;-148.56;100.00;61375.16;5029727;28;20512;-30
2021/11/24 06:05:03;;;;;;;2.65;1.45;;;;;;;-148.56;100.00;61375.16;5016062;28;20041;-32
2021/11/24 06:07:28;;;;;;;2.30;1.60;;;;;;;-148.56;100.00;61375.16;5013315;28;20163;-32
2021/11/24 06:09:54;;;;;;;1.83;1.30;;;;;;;-148.56;100.00;61375.16;5020436;28;20025;-32
2021/11/24 06:12:19;;;;;;;2.08;1.27;;;;;;;-148.56;100.00;61375.16;5016929;28;20017;-29
2021/11/24 06:14:45;;;;;;;1.95;1.42;;;;;;;-148.56;100.00;61375.16;5015000;28;20028;-31
2021/11/24 06:17:10;;;;;;;1.75;1.40;;;;;;;-148.56;100.00;61375.16;5025305;28;20025;-35
2021/11/24 06:19:36;;;;;;;1.90;1.27;;;;;;;-148.56;100.00;61375.16;5015402;28;20547;-29
2021/11/24 06:22:02;;;;;;;2.00;1.38;;;;;;;-148.56;100.00;61375.16;5022345;28;20029;-32
2021/11/24 06:24:28;;;;;;;3.20;1.48;;;;;;;-148.56;100.00;61375.16;5018160;28;20053;-31
2021/11/24 06:26:53;;;;;;;2.40;1.50;;;;;;;-148.56;100.00;61375.16;5024221;28;20571;-29
2021/11/24 06:29:19;;;;;;;3.78;1.63;;;;;;;-148.56;100.00;61375.16;5020074;28;20029;-36
2021/11/24 06:31:44;;;;;;;1.63;1.33;;;;;;;-148.56;100.00;61375.16;5024562;28;20040;-33
2021/11/24 06:34:09;;;;;;;1.63;1.27;;;;;;;-148.56;100.00;61375.16;5024787;28;20045;-30
2021/11/24 06:36:35;;;;;;;1.80;1.30;;;;;;;-148.56;100.00;61375.16;5022341;28;20032;-32
2021/11/24 06:39:01;;;;;;;3.60;1.30;;;;;;;-148.56;100.00;61375.16;5024555;28;20025;-32
2021/11/24 06:41:26;;;;;;;2.55;1.48;;;;;;;-148.56;100.00;61375.16;5020405;28;20041;-32
2021/11/24 06:43:51;;;;;;;1.90;1.35;;;;;;;-148.56;100.00;61375.16;5020919;28;20037;-34
2021/11/24 06:46:17;;;;;;;2.70;1.50;;;;;;;-148.56;100.00;61375.16;5022832;28;20325;-30
2021/11/24 06:48:42;;;;;;;1.23;1.13;;;;;;;-148.56;100.00;61375.16;5022774;28;20036;-33
2021/11/24 06:51:09;;;;;;;1.77;1.33;;;;;;;-148.56;100.00;61375.16;5021788;28;20450;-30
2021/11/24 06:53:34;;;;;;;2.50;1.20;;;;;;;-148.56;100.00;61375.16;5022097;28;20039;-31
2021/11/24 06:56:00;;;;;;;2.42;1.50;;;;;;;-148.56;100.00;61375.16;5022774;28;20028;-33
2021/11/24 06:58:25;;;;;;;6.22;1.60;;;;;;;-148.56;100.00;61375.16;5023089;28;20102;-29
2021/11/24 07:00:51;;;;;;;2.15;1.23;;;;;;;-148.56;100.00;61375.16;5027619;28;20037;-34
2021/11/24 07:03:16;;;;;;;2.95;1.50;;;;;;;-148.56;100.00;61375.16;5025369;28;20021;-29
2021/11/24 07:05:42;;;;;;;1.75;1.50;;;;;;;-148.56;100.00;61375.16;5025397;28;20029;-34
2021/11/24 07:08:07;;;;;;;2.58;1.40;;;;;;;-148.56;100.00;61375.16;5039733;28;20675;-30
2021/11/24 07:10:33;;;;;;;2.97;1.52;;;;;;;-148.56;100.00;61375.16;5021776;28;20044;-30
2021/11/24 07:12:59;;;;;;;2.25;1.58;;;;;;;-148.56;100.00;61375.16;5023052;28;20039;-29
2021/11/24 07:15:24;;;;;;;1.25;1.15;;;;;;;-148.56;100.00;61375.16;5023164;28;20029;-31
2021/11/24 07:17:50;;;;;;;1.73;1.50;;;;;;;-148.56;100.00;61375.16;5026780;28;20160;-29
2021/11/24 07:20:15;;;;;;;2.55;1.40;;;;;;;-148.56;100.00;61375.16;5027756;28;20025;-30
2021/11/24 07:22:41;;;;;;;2.13;1.42;;;;;;;-148.56;100.00;61375.16;5027082;28;20221;-32
2021/11/24 07:25:07;;;;;;;1.30;1.20;;;;;;;-148.56;100.00;61375.16;5040786;28;20037;-31
2021/11/24 07:27:33;;;;;;;2.03;1.38;;;;;;;-148.56;100.00;61375.16;5026343;28;20037;-36
2021/11/24 07:29:58;;;;;;;1.35;1.23;;;;;;;-148.56;100.00;61375.16;5023966;28;20825;-31
2021/11/24 07:32:24;;;;;;;1.30;1.20;;;;;;;-148.56;100.00;61375.16;5026227;28;20060;-31
2021/11/24 07:34:49;;;;;;;2.00;1.40;;;;;;;-148.56;100.00;61375.16;5028589;28;20029;-34
2021/11/24 07:37:14;;;;;;;2.38;1.48;;;;;;;-148.56;100.00;61375.16;5026582;28;20037;-31
2021/11/24 07:39:40;;;;;;;7.10;2.20;;;;;;;-148.56;100.00;61375.16;5025909;28;20032;-33
2021/11/24 07:42:07;;;;;;;2.92;1.90;;;;;;;-148.56;100.00;61375.16;5030944;28;20099;-32
2021/11/24 07:44:32;;;;;;;7.05;2.13;;;;;;;-148.56;100.00;61375.16;5028902;28;20068;-31
2021/11/24 07:46:57;;;;;;;9.45;1.90;;;;;;;-148.56;100.00;61375.16;5039410;28;20025;-30
2021/11/24 07:49:23;;;;;;;5.63;2.08;;;;;;;-148.56;100.00;61375.16;5022394;28;20055;-28
2021/11/24 07:51:48;;;;;;;2.72;1.83;;;;;;;-148.56;100.00;61375.16;5025437;28;20025;-31
2021/11/24 07:54:14;;;;;;;4.00;1.90;;;;;;;-148.56;100.00;61375.16;5024193;28;20024;-30
2021/11/24 07:56:39;;;;;;;4.65;1.60;;;;;;;-148.56;100.00;61375.16;5025100;28;20052;-32
2021/11/24 07:59:05;;;;;;;2.50;1.77;;;;;;;-148.56;100.00;61375.16;5023645;28;22348;-29
2021/11/24 08:01:30;;;;;;;2.63;1.60;;;;;;;-148.56;100.00;61375.16;5030192;28;20025;-32
2021/11/24 08:03:56;;;;;;;4.95;1.60;;;;;;;-148.56;100.00;61375.16;5039598;28;20032;-30
2021/11/24 08:06:21;;;;;;;2.05;1.60;;;;;;;-148.56;100.00;61375.16;5000487;28;20057;-36
2021/11/24 08:08:46;;;;;;;2.78;1.83;;;;;;;-148.56;100.00;61375.16;5021133;28;20033;-34
2021/11/24 08:11:12;;;;;;;4.43;1.40;;;;;;;-148.56;100.00;61375.16;5025013;28;20033;-30
2021/11/24 08:13:37;;;;;;;3.30;1.58;;;;;;;-148.56;100.00;61375.16;5022670;28;20029;-32
2021/11/24 08:16:03;;;;;;;9.20;2.90;;;;;;;-148.56;100.00;61375.16;5021703;28;20900;-30
2021/11/24 08:18:28;;;;;;;8.00;2.72;;;;;;;-148.56;100.00;61375.16;5023728;28;20182;-35
2021/11/24 08:20:54;;;;;;;8.00;2.55;;;;;;;-148.56;100.00;61375.16;5023227;28;20032;-31
2021/11/24 08:23:19;;;;;;;4.05;2.40;;;;;;;-148.56;100.00;61375.16;5027631;28;20523;-32
2021/11/24 08:25:45;;;;;;;7.75;2.08;;;;;;;-148.56;100.00;61375.16;5027614;28;20037;-33
2021/11/24 08:28:10;;;;;;;4.53;2.10;;;;;;;-148.56;100.00;61375.16;5027804;28;20033;-31
2021/11/24 08:30:36;;;;;;;4.03;2.20;;;;;;;-148.56;100.00;61375.16;5022771;28;20029;-32
2021/11/24 08:33:01;;;;;;;4.32;2.20;;;;;;;-148.56;100.00;61375.16;5023327;28;20029;-30
2021/11/24 08:35:27;;;;;;;3.25;1.80;;;;;;;-148.56;100.00;61375.16;5013653;28;20036;-34
2021/11/24 08:37:52;;;;;;;5.30;2.28;;;;;;;-148.56;100.00;61375.16;5021608;28;20044;-33
2021/11/24 08:40:17;;;;;;;4.57;2.40;;;;;;;-148.56;100.00;61375.16;5024334;28;20033;-32
2021/11/24 08:42:43;;;;;;;4.20;2.20;;;;;;;-148.56;100.00;61375.16;5024938;28;20035;-35
2021/11/24 08:45:10;;;;;;;4.53;2.20;;;;;;;-148.56;100.00;61375.16;5023790;28;20025;-30
2021/11/24 08:47:35;;;;;;;7.03;2.17;;;;;;;-148.56;100.00;61375.16;5023991;28;20033;-31
2021/11/24 08:50:01;;;;;;;7.07;2.25;;;;;;;-148.56;100.00;61375.16;5023977;28;20044;-34
2021/11/24 08:52:26;;;;;;;4.00;2.05;;;;;;;-148.56;100.00;61375.16;5023860;28;20029;-32
2021/11/24 08:54:52;;;;;;;5.70;2.00;;;;;;;-148.56;100.00;61375.16;5037774;28;20064;-31
2021/11/24 08:57:17;;;;;;;5.68;2.30;;;;;;;-148.56;100.00;61375.16;5023967;28;20029;-33
2021/11/24 08:59:43;;;;;;;2.92;2.10;;;;;;;-148.56;100.00;61375.16;5023556;28;20108;-34
2021/11/24 09:02:08;;;;;;;5.53;1.90;;;;;;;-148.56;100.00;61375.16;5023215;28;20040;-34
2021/11/24 09:04:34;;;;;;;4.40;1.90;;;;;;;-148.56;100.00;61375.16;5023966;28;20120;-30
2021/11/24 09:06:59;;;;;;;4.40;1.92;;;;;;;-148.56;100.00;61375.16;5021763;28;20036;-30
2021/11/24 09:09:25;;;;;;;3.33;1.92;;;;;;;-148.56;100.00;61375.16;5025374;28;20254;-32
2021/11/24 09:11:50;;;;;;;3.55;2.05;;;;;;;-148.56;100.00;61375.16;5035700;28;20076;-32
2021/11/24 09:14:16;;;;;;;2.95;1.70;;;;;;;-148.56;100.00;61375.16;5021968;28;20025;-30
2021/11/24 09:16:41;;;;;;;3.45;2.08;;;;;;;-148.56;100.00;61375.16;5024185;28;20987;-31
2021/11/24 09:19:06;;;;;;;2.72;1.90;;;;;;;-148.56;100.00;61375.16;5021556;28;20028;-31
2021/11/24 09:21:32;;;;;;;6.07;2.20;;;;;;;-148.56;100.00;61375.16;5021235;28;20033;-33
2021/11/24 09:24:03;;;;;;;6.57;2.60;;;;;;;-148.56;100.00;61375.16;5039144;28;20033;-31
2021/11/24 09:26:41;;;;;;;3.58;1.88;;;;;;;-148.56;100.00;61375.16;5021694;28;20096;-33
2021/11/24 09:29:07;;;;;;;3.40;2.28;;;;;;;-148.56;100.00;61375.16;5021394;28;20032;-31
2021/11/24 09:31:33;;;;;;;4.18;2.17;;;;;;;-148.56;100.00;61375.16;5022639;28;20083;-33
2021/11/24 09:33:59;;;;;;;3.20;2.08;;;;;;;-148.56;100.00;61375.16;5022147;28;21013;-31
2021/11/24 09:36:25;;;;;;;4.10;2.03;;;;;;;-148.56;100.00;61375.16;5020908;28;20045;-29
2021/11/24 09:38:50;;;;;;;5.10;1.98;;;;;;;-148.56;100.00;61375.16;5021830;28;20021;-32
2021/11/24 09:41:16;;;;;;;3.42;2.03;;;;;;;-148.56;100.00;61375.16;5024520;28;20028;-28
2021/11/24 09:43:47;;;;;;;30.30;3.78;;;;;;;-148.56;100.00;61375.16;5023611;28;20540;-32
2021/11/24 09:46:13;;;;;;;9.90;8.60;;;;;;;-148.56;100.00;61375.16;5035751;28;20064;-31
2021/11/24 09:48:38;;;;;;;14.70;9.00;;;;;;;-148.56;100.00;61375.16;5021151;28;20025;-32
2021/11/24 09:51:04;;;;;;;10.20;8.50;;;;;;;-148.56;100.00;61375.16;5011561;28;20529;-30
2021/11/24 09:53:29;;;;;;;10.40;6.50;;;;;;;-148.56;100.00;61375.16;5022308;28;20028;-32
2021/11/24 09:55:55;;;;;;;8.68;5.35;;;;;;;-148.56;100.00;61375.16;5018678;28;20398;-31
2021/11/24 09:58:20;;;;;;;6.72;5.00;;;;;;;-148.56;100.00;61375.16;5021600;28;20028;-30
2021/11/24 10:00:46;;;;;;;8.70;4.60;;;;;;;-148.56;100.00;61375.16;5019456;28;20626;-31
2021/11/24 10:03:13;;;;;;;11.75;5.03;;;;;;;-148.56;100.00;61375.16;5024342;28;20473;-30
2021/11/24 10:05:39;;;;;;;8.32;4.40;;;;;;;-148.56;100.00;61375.16;5023661;28;20029;-31
2021/11/24 10:08:05;;;;;;;6.22;3.85;;;;;;;-148.56;100.00;61375.16;5038653;28;20082;-31
2021/11/24 10:10:30;;;;;;;12.82;4.63;;;;;;;-148.56;100.00;61375.16;5029643;28;20038;-29
2021/11/24 10:12:56;;;;;;;11.63;4.60;;;;;;;-148.56;100.00;61375.16;5022412;28;20036;-34
2021/11/24 10:15:41;;;;;;;7.13;3.63;;;;;;;-148.56;100.00;61375.16;5024106;28;20599;-30
2021/11/24 10:18:17;;;;;;;7.72;3.97;;;;;;;-148.56;100.00;61375.16;5020923;28;20693;-32
2021/11/24 10:20:52;;;;;;;7.20;3.65;;;;;;;-148.56;100.00;61375.16;5022945;28;20024;-32
2021/11/24 10:23:30;;;;;;;11.93;3.90;;;;;;;-148.56;100.00;61375.16;5021361;28;20036;-31
2021/11/24 10:26:21;;;;;;;14.25;4.20;;;;;;;-148.56;100.00;61375.16;5025642;28;20708;-30
2021/11/24 10:29:05;;;;;;;18.50;4.32;;;;;;;-148.56;100.00;61375.16;5037370;28;20060;-29
2021/11/24 10:31:37;;;;;;;12.27;3.92;;;;;;;-148.56;100.00;61375.16;5022854;28;20025;-31
2021/11/24 10:34:14;;;;;;;18.92;4.03;;;;;;;-148.56;100.00;61375.16;5021608;28;20025;-31
2021/11/24 10:37:06;;;;;;;11.20;3.88;;;;;;;-148.56;100.00;61375.16;5022073;28;20151;-30
2021/11/24 10:39:39;;;;;;;;;;;;;;;-148.56;100.00;61375.16;5025558;28;20565;-29
2021/11/24 10:42:28;;;;;;;15.57;4.10;;;;;;;-148.56;100.00;61375.16;5027361;28;19924;-29
2021/11/24 10:44:58;;;;;;;11.68;3.92;;;;;;;-148.56;100.00;61375.16;5026522;28;20040;-31
2021/11/24 10:47:26;;;;;;;16.65;4.10;;;;;;;-148.56;100.00;61375.16;5027219;28;20111;-33
2021/11/24 10:49:53;;;;;;;11.75;4.13;;;;;;;-148.56;100.00;61375.16;5026291;28;20057;-30
2021/11/24 10:52:33;;;;;;;10.38;3.70;;;;;;;-148.56;100.00;61375.16;5032065;28;20055;-32
2021/11/24 10:55:19;;;;;;;11.25;4.03;;;;;;;-148.56;100.00;61375.16;5032279;28;20021;-30
2021/11/24 10:58:24;;;;;;;13.70;4.40;;;;;;;-148.56;100.00;61375.16;5031603;28;20028;-31
2021/11/24 11:00:51;;;;;;;11.60;3.90;;;;;;;-148.56;100.00;61375.16;5028261;28;20357;-29
2021/11/24 11:03:16;;;;;;;9.70;3.80;;;;;;;-148.56;100.00;61375.16;5032646;28;20603;-32
2021/11/24 11:05:42;;;;;;;13.52;3.67;;;;;;;-148.56;100.00;61375.16;5037991;28;20041;-30
2021/11/24 11:08:09;;;;;;;10.48;4.00;;;;;;;-148.56;100.00;61375.16;5029274;28;20037;-33
2021/11/24 11:10:40;;;;;;;11.02;3.58;;;;;;;-148.56;100.00;61375.16;5031297;28;20055;-30
2021/11/24 11:13:13;;;;;;;7.40;3.17;;;;;;;-148.56;100.00;61375.16;5030932;28;20033;-31
2021/11/24 11:15:42;;;;;;;9.20;3.42;;;;;;;-148.56;100.00;61375.16;5030382;28;20370;-31